Delta Virtual Airport Information Service

Philadelphia International Airport

ICAO: KPHL Country: United States
Latitude: 39.8719 Longitude: -75.2411
Latest Arrival : JBU1059 (KBOS-KPHL) Latest Departure : DAL1409 (2A) (KPHL-KATL)


WX CaptureLIVE
Data provided by noaa.gov | Fetched at 09:31:36

METAR : KPHL 041425Z 17010G24KT 1/2SM +RA BR BKN008 OVC013 24/24 A2961 RMK AO2 PK WND 07035/1358 WSHFT 1411 P0131 T02390239 RVRNO $

TAF : KPHL 041423Z 0414/0518 06025G50KT 2SM RA OVC012 TEMPO 0414/0418 1SM +RA OVC008 FM041900 28030G50KT 3SM SHRA OVC010 FM042000 25015G23KT P6SM VCSH BKN040 FM050200 23007KT P6SM SCT100


Runway Data for KPHL
Data provided by openaviationdata.com

Runway ID Mag Var Hdg Length Elevation Surface ILS Freq ILS Id ILS Slope
8 -10 85° 4993 ft 36 ft Asphalt -- -- --
09L -10 85° 9488 ft 36 ft Concrete 108.95 IVII 3
09R -10 85° 10486 ft 36 ft Asphalt 109.3 IPHL 3
17 -10 169° 6503 ft 36 ft Concrete 108.75 IMYY 3
26 -10 265° 4993 ft 36 ft Asphalt 111.55 ILLH 3
27L -10 265° 10486 ft 36 ft Asphalt 109.3 IGLC 3
27R -10 265° 9488 ft 36 ft Concrete 108.95 IPDP 3
35 -10 349° 6503 ft 36 ft Concrete -- -- --

Philadelphia International Airport, United States
Use only for reference purposes



Not for navigational purposes.